sensor_id;sensor_type;location;lat;lon;timestamp;pressure;altitude;pressure_sealevel;temperature;humidity
43119;BME280;28729;49.838;8.650;2022-11-20T00:01:12;99344.59;;;4.02;100.00
43119;BME280;28729;49.838;8.650;2022-11-20T00:19:45;99327.19;;;4.03;100.00
43119;BME280;28729;49.838;8.650;2022-11-20T00:23:58;99323.19;;;4.06;100.00
43119;BME280;28729;49.838;8.650;2022-11-20T00:27:59;99328.63;;;4.06;100.00
43119;BME280;28729;49.838;8.650;2022-11-20T00:32:01;99330.53;;;4.05;100.00
43119;BME280;28729;49.838;8.650;2022-11-20T00:36:05;99334.28;;;4.11;100.00
43119;BME280;28729;49.838;8.650;2022-11-20T00:40:07;99337.00;;;4.11;100.00
43119;BME280;28729;49.838;8.650;2022-11-20T00:44:09;99332.38;;;4.11;100.00
43119;BME280;28729;49.838;8.650;2022-11-20T00:48:11;99321.06;;;4.08;100.00
43119;BME280;28729;49.838;8.650;2022-11-20T00:52:12;99322.13;;;4.07;100.00
43119;BME280;28729;49.838;8.650;2022-11-20T00:56:16;99312.22;;;4.13;100.00
43119;BME280;28729;49.838;8.650;2022-11-20T01:00:18;99310.94;;;4.15;100.00
43119;BME280;28729;49.838;8.650;2022-11-20T01:04:20;99321.66;;;4.17;100.00
43119;BME280;28729;49.838;8.650;2022-11-20T01:08:21;99321.47;;;4.11;100.00
43119;BME280;28729;49.838;8.650;2022-11-20T01:12:23;99323.56;;;4.09;100.00
43119;BME280;28729;49.838;8.650;2022-11-20T02:03:05;99309.22;;;4.21;100.00
43119;BME280;28729;49.838;8.650;2022-11-20T02:07:09;99304.66;;;4.15;100.00
43119;BME280;28729;49.838;8.650;2022-11-20T02:11:10;99308.03;;;4.17;100.00
43119;BME280;28729;49.838;8.650;2022-11-20T02:15:14;99301.69;;;4.16;100.00
43119;BME280;28729;49.838;8.650;2022-11-20T02:19:27;99303.16;;;4.19;100.00
43119;BME280;28729;49.838;8.650;2022-11-20T02:23:38;99305.88;;;4.19;100.00
43119;BME280;28729;49.838;8.650;2022-11-20T02:58:46;99289.63;;;4.05;100.00
43119;BME280;28729;49.838;8.650;2022-11-20T03:03:23;99292.13;;;4.07;100.00
43119;BME280;28729;49.838;8.650;2022-11-20T03:07:54;99292.13;;;4.07;100.00
43119;BME280;28729;49.838;8.650;2022-11-20T03:11:58;99302.44;;;4.05;100.00
43119;BME280;28729;49.838;8.650;2022-11-20T03:17:00;99302.88;;;3.95;100.00
43119;BME280;28729;49.838;8.650;2022-11-20T03:22:04;99306.47;;;3.96;100.00
43119;BME280;28729;49.838;8.650;2022-11-20T03:26:32;99299.13;;;3.96;100.00
43119;BME280;28729;49.838;8.650;2022-11-20T03:30:39;99288.38;;;4.01;100.00
43119;BME280;28729;49.838;8.650;2022-11-20T03:49:46;99289.69;;;3.99;100.00
43119;BME280;28729;49.838;8.650;2022-11-20T03:58:50;99293.00;;;4.01;100.00
43119;BME280;28729;49.838;8.650;2022-11-20T04:03:14;99292.78;;;4.02;100.00
43119;BME280;28729;49.838;8.650;2022-11-20T04:07:23;99291.72;;;4.03;100.00
43119;BME280;28729;49.838;8.650;2022-11-20T04:11:27;99295.53;;;4.02;100.00
43119;BME280;28729;49.838;8.650;2022-11-20T04:15:29;99292.34;;;4.05;100.00
43119;BME280;28729;49.838;8.650;2022-11-20T04:19:38;99290.66;;;4.04;100.00
43119;BME280;28729;49.838;8.650;2022-11-20T04:23:40;99279.56;;;4.06;100.00
43119;BME280;28729;49.838;8.650;2022-11-20T04:27:42;99270.53;;;4.05;100.00
43119;BME280;28729;49.838;8.650;2022-11-20T04:31:43;99270.31;;;4.07;100.00
43119;BME280;28729;49.838;8.650;2022-11-20T04:35:48;99262.97;;;4.07;100.00
43119;BME280;28729;49.838;8.650;2022-11-20T05:05:39;99255.66;;;4.01;100.00
43119;BME280;28729;49.838;8.650;2022-11-20T05:14:27;99267.59;;;4.07;100.00
43119;BME280;28729;49.838;8.650;2022-11-20T05:18:29;99265.28;;;4.10;100.00
43119;BME280;28729;49.838;8.650;2022-11-20T05:22:31;99261.66;;;4.17;100.00
43119;BME280;28729;49.838;8.650;2022-11-20T05:26:33;99249.44;;;4.19;100.00
43119;BME280;28729;49.838;8.650;2022-11-20T05:30:34;99255.75;;;4.20;100.00
43119;BME280;28729;49.838;8.650;2022-11-20T05:34:36;99257.69;;;4.13;100.00
43119;BME280;28729;49.838;8.650;2022-11-20T05:38:38;99252.91;;;4.08;100.00
43119;BME280;28729;49.838;8.650;2022-11-20T05:42:39;99256.41;;;4.15;100.00
43119;BME280;28729;49.838;8.650;2022-11-20T05:46:41;99253.88;;;4.20;100.00
43119;BME280;28729;49.838;8.650;2022-11-20T05:50:43;99254.88;;;4.26;100.00
43119;BME280;28729;49.838;8.650;2022-11-20T05:54:44;99254.69;;;4.21;100.00
43119;BME280;28729;49.838;8.650;2022-11-20T05:58:46;99242.56;;;4.17;100.00
43119;BME280;28729;49.838;8.650;2022-11-20T06:02:48;99234.22;;;4.11;100.00
43119;BME280;28729;49.838;8.650;2022-11-20T06:06:50;99237.13;;;4.17;100.00
43119;BME280;28729;49.838;8.650;2022-11-20T06:10:52;99253.03;;;4.20;100.00
43119;BME280;28729;49.838;8.650;2022-11-20T06:14:53;99232.50;;;4.17;100.00
43119;BME280;28729;49.838;8.650;2022-11-20T06:18:55;99225.13;;;4.18;100.00
43119;BME280;28729;49.838;8.650;2022-11-20T06:22:56;99237.94;;;4.17;100.00
43119;BME280;28729;49.838;8.650;2022-11-20T06:31:56;99251.72;;;4.22;100.00
43119;BME280;28729;49.838;8.650;2022-11-20T06:35:59;99247.59;;;4.20;100.00
43119;BME280;28729;49.838;8.650;2022-11-20T06:40:11;99242.72;;;4.22;100.00
43119;BME280;28729;49.838;8.650;2022-11-20T06:44:13;99247.59;;;4.20;100.00
43119;BME280;28729;49.838;8.650;2022-11-20T06:48:15;99260.16;;;4.21;100.00
43119;BME280;28729;49.838;8.650;2022-11-20T06:52:17;99256.19;;;4.17;100.00
43119;BME280;28729;49.838;8.650;2022-11-20T06:56:18;99238.34;;;4.21;100.00
43119;BME280;28729;49.838;8.650;2022-11-20T07:00:30;99244.16;;;4.24;100.00
43119;BME280;28729;49.838;8.650;2022-11-20T07:04:47;99249.41;;;4.26;100.00
43119;BME280;28729;49.838;8.650;2022-11-20T07:08:52;99261.97;;;4.27;100.00
43119;BME280;28729;49.838;8.650;2022-11-20T07:12:54;99265.97;;;4.24;100.00
43119;BME280;28729;49.838;8.650;2022-11-20T07:16:56;99260.91;;;4.28;100.00
43119;BME280;28729;49.838;8.650;2022-11-20T07:21:05;99274.09;;;4.31;100.00
43119;BME280;28729;49.838;8.650;2022-11-20T07:25:08;99263.19;;;4.31;100.00
43119;BME280;28729;49.838;8.650;2022-11-20T07:29:10;99268.22;;;4.34;100.00
43119;BME280;28729;49.838;8.650;2022-11-20T07:33:11;99274.53;;;4.34;100.00
43119;BME280;28729;49.838;8.650;2022-11-20T07:37:13;99282.78;;;4.21;100.00
43119;BME280;28729;49.838;8.650;2022-11-20T07:41:15;99275.69;;;4.20;100.00
43119;BME280;28729;49.838;8.650;2022-11-20T07:49:41;99275.41;;;4.28;100.00
43119;BME280;28729;49.838;8.650;2022-11-20T07:53:43;99276.00;;;4.30;100.00
43119;BME280;28729;49.838;8.650;2022-11-20T07:57:45;99288.81;;;4.30;100.00
43119;BME280;28729;49.838;8.650;2022-11-20T08:01:46;99297.44;;;4.27;100.00
43119;BME280;28729;49.838;8.650;2022-11-20T08:05:48;99310.00;;;4.28;100.00
43119;BME280;28729;49.838;8.650;2022-11-20T08:09:50;99303.66;;;4.34;100.00
43119;BME280;28729;49.838;8.650;2022-11-20T08:13:52;99310.75;;;4.42;100.00
43119;BME280;28729;49.838;8.650;2022-11-20T08:18:12;99304.03;;;4.44;100.00
43119;BME280;28729;49.838;8.650;2022-11-20T08:22:34;99320.72;;;4.54;100.00
43119;BME280;28729;49.838;8.650;2022-11-20T08:26:36;99314.53;;;4.66;100.00
43119;BME280;28729;49.838;8.650;2022-11-20T08:30:38;99313.03;;;4.70;100.00
43119;BME280;28729;49.838;8.650;2022-11-20T08:34:39;99316.75;;;4.75;100.00
43119;BME280;28729;49.838;8.650;2022-11-20T08:38:41;99314.28;;;4.92;100.00
43119;BME280;28729;49.838;8.650;2022-11-20T08:42:49;99314.38;;;5.22;100.00
43119;BME280;28729;49.838;8.650;2022-11-20T08:47:18;99322.03;;;5.32;100.00
43119;BME280;28729;49.838;8.650;2022-11-20T08:51:21;99322.91;;;5.33;100.00
43119;BME280;28729;49.838;8.650;2022-11-20T08:55:22;99314.53;;;5.46;100.00
43119;BME280;28729;49.838;8.650;2022-11-20T08:59:24;99312.41;;;5.66;100.00
43119;BME280;28729;49.838;8.650;2022-11-20T09:03:46;99322.03;;;5.69;100.00
43119;BME280;28729;49.838;8.650;2022-11-20T09:07:47;99314.06;;;5.67;100.00
43119;BME280;28729;49.838;8.650;2022-11-20T09:11:49;99316.41;;;5.64;100.00
43119;BME280;28729;49.838;8.650;2022-11-20T09:15:55;99321.81;;;5.52;100.00
43119;BME280;28729;49.838;8.650;2022-11-20T09:19:57;99311.13;;;5.51;100.00
43119;BME280;28729;49.838;8.650;2022-11-20T09:23:59;99321.97;;;5.57;100.00
43119;BME280;28729;49.838;8.650;2022-11-20T09:28:01;99329.41;;;5.68;100.00
43119;BME280;28729;49.838;8.650;2022-11-20T09:32:02;99322.47;;;5.84;100.00
43119;BME280;28729;49.838;8.650;2022-11-20T09:36:04;99328.38;;;6.00;100.00
43119;BME280;28729;49.838;8.650;2022-11-20T09:40:09;99336.88;;;6.10;100.00
43119;BME280;28729;49.838;8.650;2022-11-20T09:44:31;99332.75;;;6.19;100.00
43119;BME280;28729;49.838;8.650;2022-11-20T09:57:18;99326.06;;;6.15;100.00
43119;BME280;28729;49.838;8.650;2022-11-20T10:01:23;99327.25;;;6.07;100.00
43119;BME280;28729;49.838;8.650;2022-11-20T10:05:31;99325.31;;;6.08;100.00
43119;BME280;28729;49.838;8.650;2022-11-20T10:09:37;99322.75;;;6.13;100.00
43119;BME280;28729;49.838;8.650;2022-11-20T10:14:00;99326.69;;;6.29;100.00
43119;BME280;28729;49.838;8.650;2022-11-20T10:26:46;99308.44;;;6.11;100.00
43119;BME280;28729;49.838;8.650;2022-11-20T10:31:02;99308.78;;;6.03;100.00
43119;BME280;28729;49.838;8.650;2022-11-20T10:39:24;99306.13;;;5.96;100.00
43119;BME280;28729;49.838;8.650;2022-11-20T10:43:32;99310.16;;;5.93;100.00
43119;BME280;28729;49.838;8.650;2022-11-20T10:47:34;99295.41;;;5.94;100.00
43119;BME280;28729;49.838;8.650;2022-11-20T10:52:09;99301.31;;;5.91;100.00
43119;BME280;28729;49.838;8.650;2022-11-20T10:56:31;99288.50;;;5.92;100.00
43119;BME280;28729;49.838;8.650;2022-11-20T11:17:04;99282.25;;;6.03;100.00
43119;BME280;28729;49.838;8.650;2022-11-20T11:31:33;99260.63;;;6.02;100.00
43119;BME280;28729;49.838;8.650;2022-11-20T11:35:47;99253.97;;;6.09;100.00
43119;BME280;28729;49.838;8.650;2022-11-20T11:39:57;99254.00;;;6.21;100.00
43119;BME280;28729;49.838;8.650;2022-11-20T11:44:30;99239.63;;;6.37;100.00
43119;BME280;28729;49.838;8.650;2022-11-20T11:49:18;99242.13;;;6.51;100.00
43119;BME280;28729;49.838;8.650;2022-11-20T11:53:26;99246.16;;;6.60;100.00
43119;BME280;28729;49.838;8.650;2022-11-20T11:57:48;99242.59;;;6.71;100.00
43119;BME280;28729;49.838;8.650;2022-11-20T12:01:56;99232.72;;;6.82;100.00
43119;BME280;28729;49.838;8.650;2022-11-20T12:06:14;99225.22;;;6.89;100.00
43119;BME280;28729;49.838;8.650;2022-11-20T12:10:21;99229.97;;;6.94;100.00
43119;BME280;28729;49.838;8.650;2022-11-20T12:14:42;99220.91;;;7.05;100.00
43119;BME280;28729;49.838;8.650;2022-11-20T12:18:47;99219.81;;;7.18;100.00
43119;BME280;28729;49.838;8.650;2022-11-20T12:23:09;99221.72;;;7.17;100.00
43119;BME280;28729;49.838;8.650;2022-11-20T12:27:44;99213.50;;;7.17;100.00
43119;BME280;28729;49.838;8.650;2022-11-20T12:32:06;99211.81;;;7.16;100.00
43119;BME280;28729;49.838;8.650;2022-11-20T12:36:56;99215.50;;;7.22;100.00
43119;BME280;28729;49.838;8.650;2022-11-20T12:46:19;99195.06;;;7.41;100.00
43119;BME280;28729;49.838;8.650;2022-11-20T12:55:09;99212.56;;;7.40;100.00
43119;BME280;28729;49.838;8.650;2022-11-20T13:03:56;99195.09;;;7.58;100.00
43119;BME280;28729;49.838;8.650;2022-11-20T13:08:18;99183.25;;;7.69;100.00
43119;BME280;28729;49.838;8.650;2022-11-20T13:12:38;99182.97;;;7.83;100.00
43119;BME280;28729;49.838;8.650;2022-11-20T13:20:48;99172.34;;;8.03;100.00
43119;BME280;28729;49.838;8.650;2022-11-20T13:24:51;99161.94;;;8.05;100.00
43119;BME280;28729;49.838;8.650;2022-11-20T13:29:22;99154.44;;;8.17;100.00
43119;BME280;28729;49.838;8.650;2022-11-20T13:33:34;99141.22;;;8.31;100.00
43119;BME280;28729;49.838;8.650;2022-11-20T13:37:37;99137.25;;;8.39;100.00
43119;BME280;28729;49.838;8.650;2022-11-20T13:41:39;99139.81;;;8.46;100.00
43119;BME280;28729;49.838;8.650;2022-11-20T13:45:42;99143.97;;;8.48;100.00
43119;BME280;28729;49.838;8.650;2022-11-20T13:49:43;99143.69;;;8.50;100.00
43119;BME280;28729;49.838;8.650;2022-11-20T14:02:34;99120.16;;;8.37;100.00
43119;BME280;28729;49.838;8.650;2022-11-20T14:06:43;99118.97;;;8.33;100.00
43119;BME280;28729;49.838;8.650;2022-11-20T14:11:04;99118.34;;;8.26;100.00
43119;BME280;28729;49.838;8.650;2022-11-20T14:15:25;99121.09;;;8.26;100.00
43119;BME280;28729;49.838;8.650;2022-11-20T14:19:28;99116.75;;;8.30;100.00
43119;BME280;28729;49.838;8.650;2022-11-20T14:23:31;99109.69;;;8.34;100.00
43119;BME280;28729;49.838;8.650;2022-11-20T14:27:36;99100.94;;;8.37;100.00
43119;BME280;28729;49.838;8.650;2022-11-20T14:31:38;99090.91;;;8.42;100.00
43119;BME280;28729;49.838;8.650;2022-11-20T14:35:52;99091.06;;;8.36;100.00
43119;BME280;28729;49.838;8.650;2022-11-20T14:39:55;99092.03;;;8.30;100.00
43119;BME280;28729;49.838;8.650;2022-11-20T14:43:59;99092.31;;;8.28;100.00
43119;BME280;28729;49.838;8.650;2022-11-20T14:48:01;99073.34;;;8.27;100.00
43119;BME280;28729;49.838;8.650;2022-11-20T14:52:14;99066.47;;;8.24;100.00
43119;BME280;28729;49.838;8.650;2022-11-20T14:56:22;99071.03;;;8.18;100.00
43119;BME280;28729;49.838;8.650;2022-11-20T15:00:24;99065.97;;;8.10;100.00
43119;BME280;28729;49.838;8.650;2022-11-20T15:04:26;99060.66;;;8.04;100.00
43119;BME280;28729;49.838;8.650;2022-11-20T15:08:29;99063.56;;;7.97;100.00
43119;BME280;28729;49.838;8.650;2022-11-20T15:12:32;99065.75;;;7.95;100.00
43119;BME280;28729;49.838;8.650;2022-11-20T15:16:34;99056.94;;;7.93;100.00
43119;BME280;28729;49.838;8.650;2022-11-20T15:20:36;99054.47;;;7.91;100.00
43119;BME280;28729;49.838;8.650;2022-11-20T15:24:37;99055.19;;;7.87;100.00
43119;BME280;28729;49.838;8.650;2022-11-20T15:28:43;99044.97;;;7.82;100.00
43119;BME280;28729;49.838;8.650;2022-11-20T15:32:46;99052.31;;;7.76;100.00
43119;BME280;28729;49.838;8.650;2022-11-20T15:36:48;99045.97;;;7.76;100.00
43119;BME280;28729;49.838;8.650;2022-11-20T15:40:49;99043.22;;;7.76;100.00
43119;BME280;28729;49.838;8.650;2022-11-20T15:44:51;99032.00;;;7.78;100.00
43119;BME280;28729;49.838;8.650;2022-11-20T15:48:56;99035.84;;;7.76;100.00
43119;BME280;28729;49.838;8.650;2022-11-20T15:52:58;99030.88;;;7.73;100.00
43119;BME280;28729;49.838;8.650;2022-11-20T15:57:00;99027.22;;;7.68;100.00
43119;BME280;28729;49.838;8.650;2022-11-20T16:01:03;99030.44;;;7.65;100.00
43119;BME280;28729;49.838;8.650;2022-11-20T16:05:10;99024.69;;;7.66;100.00
43119;BME280;28729;49.838;8.650;2022-11-20T16:09:12;99027.72;;;7.65;100.00
43119;BME280;28729;49.838;8.650;2022-11-20T16:13:17;99013.72;;;7.66;100.00
43119;BME280;28729;49.838;8.650;2022-11-20T16:17:38;99012.09;;;7.65;100.00
43119;BME280;28729;49.838;8.650;2022-11-20T16:21:45;99014.81;;;7.65;100.00
43119;BME280;28729;49.838;8.650;2022-11-20T16:25:48;99007.66;;;7.64;100.00
43119;BME280;28729;49.838;8.650;2022-11-20T16:29:50;99006.00;;;7.63;100.00
43119;BME280;28729;49.838;8.650;2022-11-20T16:33:53;98997.56;;;7.65;100.00
43119;BME280;28729;49.838;8.650;2022-11-20T16:37:55;98991.78;;;7.66;100.00
43119;BME280;28729;49.838;8.650;2022-11-20T16:41:58;98974.84;;;7.69;100.00
43119;BME280;28729;49.838;8.650;2022-11-20T16:46:03;98972.38;;;7.68;100.00
43119;BME280;28729;49.838;8.650;2022-11-20T16:50:05;98969.03;;;7.66;100.00
43119;BME280;28729;49.838;8.650;2022-11-20T16:54:08;98969.84;;;7.66;100.00
43119;BME280;28729;49.838;8.650;2022-11-20T17:02:56;98958.66;;;7.68;100.00
43119;BME280;28729;49.838;8.650;2022-11-20T17:07:29;98967.63;;;7.63;100.00
43119;BME280;28729;49.838;8.650;2022-11-20T17:11:31;98962.41;;;7.62;100.00
43119;BME280;28729;49.838;8.650;2022-11-20T17:15:34;98957.97;;;7.61;100.00
43119;BME280;28729;49.838;8.650;2022-11-20T17:19:41;98954.91;;;7.57;100.00
43119;BME280;28729;49.838;8.650;2022-11-20T17:23:44;98948.84;;;7.55;100.00
43119;BME280;28729;49.838;8.650;2022-11-20T17:27:46;98950.69;;;7.49;100.00
43119;BME280;28729;49.838;8.650;2022-11-20T17:31:47;98958.06;;;7.49;100.00
43119;BME280;28729;49.838;8.650;2022-11-20T17:35:49;98942.63;;;7.43;100.00
43119;BME280;28729;49.838;8.650;2022-11-20T17:39:51;98939.34;;;7.41;100.00
43119;BME280;28729;49.838;8.650;2022-11-20T17:43:54;98933.84;;;7.41;100.00
43119;BME280;28729;49.838;8.650;2022-11-20T17:47:56;98932.25;;;7.45;100.00
43119;BME280;28729;49.838;8.650;2022-11-20T17:51:58;98928.44;;;7.46;100.00
43119;BME280;28729;49.838;8.650;2022-11-20T17:56:00;98921.03;;;7.46;100.00
43119;BME280;28729;49.838;8.650;2022-11-20T18:00:22;98922.38;;;7.44;100.00
43119;BME280;28729;49.838;8.650;2022-11-20T18:04:25;98905.94;;;7.44;100.00
43119;BME280;28729;49.838;8.650;2022-11-20T18:08:27;98900.47;;;7.44;100.00
43119;BME280;28729;49.838;8.650;2022-11-20T18:12:29;98887.75;;;7.38;100.00
43119;BME280;28729;49.838;8.650;2022-11-20T18:16:34;98877.53;;;7.33;100.00
43119;BME280;28729;49.838;8.650;2022-11-20T18:20:44;98881.59;;;7.30;100.00
43119;BME280;28729;49.838;8.650;2022-11-20T18:24:46;98881.03;;;7.28;100.00
43119;BME280;28729;49.838;8.650;2022-11-20T18:28:48;98872.81;;;7.28;100.00
43119;BME280;28729;49.838;8.650;2022-11-20T18:37:10;98855.81;;;7.26;100.00
43119;BME280;28729;49.838;8.650;2022-11-20T18:41:17;98852.47;;;7.24;100.00
43119;BME280;28729;49.838;8.650;2022-11-20T18:45:41;98842.34;;;7.25;100.00
43119;BME280;28729;49.838;8.650;2022-11-20T18:49:45;98834.94;;;7.25;100.00
43119;BME280;28729;49.838;8.650;2022-11-20T18:53:51;98834.13;;;7.25;100.00
43119;BME280;28729;49.838;8.650;2022-11-20T18:57:53;98837.88;;;7.19;100.00
43119;BME280;28729;49.838;8.650;2022-11-20T19:01:55;98837.03;;;7.18;100.00
43119;BME280;28729;49.838;8.650;2022-11-20T19:05:59;98837.03;;;7.18;100.00
43119;BME280;28729;49.838;8.650;2022-11-20T19:10:00;98834.50;;;7.12;100.00
43119;BME280;28729;49.838;8.650;2022-11-20T19:14:05;98838.56;;;7.09;100.00
43119;BME280;28729;49.838;8.650;2022-11-20T19:18:07;98837.72;;;7.08;100.00
43119;BME280;28729;49.838;8.650;2022-11-20T19:22:08;98830.84;;;7.06;100.00
43119;BME280;28729;49.838;8.650;2022-11-20T19:26:10;98830.84;;;7.06;100.00
43119;BME280;28729;49.838;8.650;2022-11-20T19:30:13;98843.34;;;7.02;100.00
43119;BME280;28729;49.838;8.650;2022-11-20T19:34:15;98832.41;;;7.02;100.00
43119;BME280;28729;49.838;8.650;2022-11-20T19:38:17;98828.84;;;7.01;100.00
43119;BME280;28729;49.838;8.650;2022-11-20T19:42:19;98807.75;;;7.02;100.00
43119;BME280;28729;49.838;8.650;2022-11-20T19:46:21;98817.66;;;7.03;100.00
43119;BME280;28729;49.838;8.650;2022-11-20T19:50:23;98825.94;;;7.08;100.00
43119;BME280;28729;49.838;8.650;2022-11-20T19:54:25;98821.78;;;7.05;100.00
43119;BME280;28729;49.838;8.650;2022-11-20T19:58:27;98812.25;;;7.08;100.00
43119;BME280;28729;49.838;8.650;2022-11-20T20:02:30;98810.06;;;7.10;100.00
43119;BME280;28729;49.838;8.650;2022-11-20T20:06:35;98790.38;;;7.13;100.00
43119;BME280;28729;49.838;8.650;2022-11-20T20:10:39;98795.63;;;7.15;100.00
43119;BME280;28729;49.838;8.650;2022-11-20T20:14:51;98801.03;;;7.10;100.00
43119;BME280;28729;49.838;8.650;2022-11-20T20:18:55;98794.63;;;7.04;100.00
43119;BME280;28729;49.838;8.650;2022-11-20T20:23:43;98805.00;;;7.02;100.00
43119;BME280;28729;49.838;8.650;2022-11-20T20:32:47;98809.34;;;6.98;100.00
43119;BME280;28729;49.838;8.650;2022-11-20T20:36:56;98803.28;;;6.96;100.00
43119;BME280;28729;49.838;8.650;2022-11-20T20:41:01;98804.13;;;6.96;100.00
43119;BME280;28729;49.838;8.650;2022-11-20T20:45:17;98800.47;;;6.91;100.00
43119;BME280;28729;49.838;8.650;2022-11-20T20:49:28;98789.22;;;6.87;100.00
43119;BME280;28729;49.838;8.650;2022-11-20T20:53:34;98797.06;;;6.83;100.00
43119;BME280;28729;49.838;8.650;2022-11-20T20:57:39;98789.53;;;6.74;100.00
43119;BME280;28729;49.838;8.650;2022-11-20T21:01:42;98789.13;;;6.65;100.00
43119;BME280;28729;49.838;8.650;2022-11-20T21:05:55;98776.69;;;6.57;100.00
43119;BME280;28729;49.838;8.650;2022-11-20T21:10:25;98780.16;;;6.53;100.00
43119;BME280;28729;49.838;8.650;2022-11-20T21:15:06;98780.66;;;6.50;100.00
43119;BME280;28729;49.838;8.650;2022-11-20T21:19:09;98777.34;;;6.48;100.00
43119;BME280;28729;49.838;8.650;2022-11-20T21:23:13;98782.47;;;6.44;100.00
43119;BME280;28729;49.838;8.650;2022-11-20T21:27:15;98792.50;;;6.38;100.00
43119;BME280;28729;49.838;8.650;2022-11-20T21:31:18;98784.47;;;6.32;100.00
43119;BME280;28729;49.838;8.650;2022-11-20T21:35:22;98789.84;;;6.27;100.00
43119;BME280;28729;49.838;8.650;2022-11-20T21:39:24;98789.03;;;6.26;100.00
43119;BME280;28729;49.838;8.650;2022-11-20T21:43:25;98790.09;;;6.25;100.00
43119;BME280;28729;49.838;8.650;2022-11-20T21:47:27;98786.13;;;6.33;100.00
43119;BME280;28729;49.838;8.650;2022-11-20T21:51:28;98806.19;;;6.38;100.00
43119;BME280;28729;49.838;8.650;2022-11-20T21:55:30;98808.19;;;6.43;100.00
43119;BME280;28729;49.838;8.650;2022-11-20T21:59:32;98811.00;;;6.48;100.00
43119;BME280;28729;49.838;8.650;2022-11-20T22:03:34;98805.94;;;6.57;100.00
43119;BME280;28729;49.838;8.650;2022-11-20T22:07:50;98795.41;;;6.66;100.00
43119;BME280;28729;49.838;8.650;2022-11-20T22:11:56;98804.03;;;6.74;100.00
43119;BME280;28729;49.838;8.650;2022-11-20T22:16:19;98801.06;;;6.76;100.00
43119;BME280;28729;49.838;8.650;2022-11-20T22:20:46;98790.13;;;6.76;100.00
43119;BME280;28729;49.838;8.650;2022-11-20T22:24:48;98792.09;;;6.80;100.00
43119;BME280;28729;49.838;8.650;2022-11-20T22:29:06;98788.84;;;6.83;100.00
43119;BME280;28729;49.838;8.650;2022-11-20T22:33:16;98789.94;;;6.82;100.00
43119;BME280;28729;49.838;8.650;2022-11-20T22:37:52;98791.34;;;6.85;100.00
43119;BME280;28729;49.838;8.650;2022-11-20T22:41:54;98791.09;;;6.87;100.00
43119;BME280;28729;49.838;8.650;2022-11-20T22:46:17;98794.41;;;6.89;100.00
43119;BME280;28729;49.838;8.650;2022-11-20T22:50:20;98790.84;;;6.88;100.00
43119;BME280;28729;49.838;8.650;2022-11-20T22:54:22;98792.78;;;6.88;100.00
43119;BME280;28729;49.838;8.650;2022-11-20T22:58:29;98802.41;;;6.90;100.00
43119;BME280;28729;49.838;8.650;2022-11-20T23:02:31;98801.91;;;6.93;100.00
43119;BME280;28729;49.838;8.650;2022-11-20T23:06:33;98790.09;;;6.93;100.00
43119;BME280;28729;49.838;8.650;2022-11-20T23:10:37;98780.22;;;6.92;100.00
43119;BME280;28729;49.838;8.650;2022-11-20T23:14:52;98776.91;;;6.90;100.00
43119;BME280;28729;49.838;8.650;2022-11-20T23:19:03;98790.84;;;6.88;100.00
43119;BME280;28729;49.838;8.650;2022-11-20T23:23:40;98790.84;;;6.88;100.00
43119;BME280;28729;49.838;8.650;2022-11-20T23:28:08;98801.47;;;6.84;100.00
43119;BME280;28729;49.838;8.650;2022-11-20T23:32:12;98802.53;;;6.83;100.00
43119;BME280;28729;49.838;8.650;2022-11-20T23:36:24;98799.56;;;6.85;100.00
43119;BME280;28729;49.838;8.650;2022-11-20T23:40:33;98810.03;;;6.88;100.00
43119;BME280;28729;49.838;8.650;2022-11-20T23:44:44;98803.47;;;6.89;100.00
43119;BME280;28729;49.838;8.650;2022-11-20T23:48:50;98810.03;;;6.88;100.00
43119;BME280;28729;49.838;8.650;2022-11-20T23:52:58;98796.91;;;6.90;100.00
43119;BME280;28729;49.838;8.650;2022-11-20T23:57:06;98801.63;;;6.95;100.00
